sensor_id;sensor_type;location;lat;lon;timestamp;P1;durP1;ratioP1;P2;durP2;ratioP2
25503;SDS011;13410;52.114;5.718;2023-01-26T00:01:06;89.45;;;33.53;;
25503;SDS011;13410;52.114;5.718;2023-01-26T00:03:36;91.18;;;33.72;;
25503;SDS011;13410;52.114;5.718;2023-01-26T00:06:05;90.70;;;32.40;;
25503;SDS011;13410;52.114;5.718;2023-01-26T00:11:03;85.43;;;30.65;;
25503;SDS011;13410;52.114;5.718;2023-01-26T00:13:30;88.55;;;32.58;;
25503;SDS011;13410;52.114;5.718;2023-01-26T00:15:55;88.50;;;32.53;;
25503;SDS011;13410;52.114;5.718;2023-01-26T00:18:21;91.75;;;33.38;;
25503;SDS011;13410;52.114;5.718;2023-01-26T00:20:46;84.72;;;31.58;;
25503;SDS011;13410;52.114;5.718;2023-01-26T00:23:12;88.22;;;32.55;;
25503;SDS011;13410;52.114;5.718;2023-01-26T00:25:38;83.05;;;30.98;;
25503;SDS011;13410;52.114;5.718;2023-01-26T00:28:06;86.82;;;32.03;;
25503;SDS011;13410;52.114;5.718;2023-01-26T00:30:32;89.32;;;32.83;;
25503;SDS011;13410;52.114;5.718;2023-01-26T00:32:57;87.32;;;31.75;;
25503;SDS011;13410;52.114;5.718;2023-01-26T00:35:23;91.65;;;33.60;;
25503;SDS011;13410;52.114;5.718;2023-01-26T00:37:49;84.13;;;31.98;;
25503;SDS011;13410;52.114;5.718;2023-01-26T00:40:14;84.88;;;32.80;;
25503;SDS011;13410;52.114;5.718;2023-01-26T00:42:40;81.72;;;31.38;;
25503;SDS011;13410;52.114;5.718;2023-01-26T00:45:06;85.43;;;32.30;;
25503;SDS011;13410;52.114;5.718;2023-01-26T00:47:31;84.43;;;31.48;;
25503;SDS011;13410;52.114;5.718;2023-01-26T00:49:57;80.50;;;31.10;;
25503;SDS011;13410;52.114;5.718;2023-01-26T00:52:23;81.65;;;31.45;;
25503;SDS011;13410;52.114;5.718;2023-01-26T00:54:48;82.10;;;31.13;;
25503;SDS011;13410;52.114;5.718;2023-01-26T00:57:14;82.40;;;30.73;;
25503;SDS011;13410;52.114;5.718;2023-01-26T00:59:39;74.38;;;28.67;;
25503;SDS011;13410;52.114;5.718;2023-01-26T01:02:05;80.93;;;30.92;;
25503;SDS011;13410;52.114;5.718;2023-01-26T01:04:30;76.78;;;30.13;;
25503;SDS011;13410;52.114;5.718;2023-01-26T01:06:56;80.45;;;30.60;;
25503;SDS011;13410;52.114;5.718;2023-01-26T01:09:22;79.40;;;30.17;;
25503;SDS011;13410;52.114;5.718;2023-01-26T01:11:48;78.55;;;30.23;;
25503;SDS011;13410;52.114;5.718;2023-01-26T01:14:13;84.07;;;31.23;;
25503;SDS011;13410;52.114;5.718;2023-01-26T01:16:39;79.50;;;30.30;;
25503;SDS011;13410;52.114;5.718;2023-01-26T01:19:06;76.03;;;29.80;;
25503;SDS011;13410;52.114;5.718;2023-01-26T01:21:32;80.18;;;31.02;;
25503;SDS011;13410;52.114;5.718;2023-01-26T01:23:58;75.97;;;29.80;;
25503;SDS011;13410;52.114;5.718;2023-01-26T01:26:24;78.60;;;29.67;;
25503;SDS011;13410;52.114;5.718;2023-01-26T01:28:52;76.90;;;28.35;;
25503;SDS011;13410;52.114;5.718;2023-01-26T01:31:19;75.82;;;29.23;;
25503;SDS011;13410;52.114;5.718;2023-01-26T01:33:44;71.05;;;27.77;;
25503;SDS011;13410;52.114;5.718;2023-01-26T01:36:11;65.57;;;26.88;;
25503;SDS011;13410;52.114;5.718;2023-01-26T01:38:38;71.35;;;28.08;;
25503;SDS011;13410;52.114;5.718;2023-01-26T01:41:05;68.90;;;26.50;;
25503;SDS011;13410;52.114;5.718;2023-01-26T01:43:31;67.97;;;26.33;;
25503;SDS011;13410;52.114;5.718;2023-01-26T01:45:58;65.25;;;26.10;;
25503;SDS011;13410;52.114;5.718;2023-01-26T01:48:37;67.30;;;25.90;;
25503;SDS011;13410;52.114;5.718;2023-01-26T01:51:57;63.03;;;25.65;;
25503;SDS011;13410;52.114;5.718;2023-01-26T01:54:25;64.07;;;25.33;;
25503;SDS011;13410;52.114;5.718;2023-01-26T01:56:57;63.15;;;25.15;;
25503;SDS011;13410;52.114;5.718;2023-01-26T01:59:28;59.42;;;24.20;;
25503;SDS011;13410;52.114;5.718;2023-01-26T02:01:55;58.90;;;24.45;;
25503;SDS011;13410;52.114;5.718;2023-01-26T02:04:21;59.28;;;23.92;;
25503;SDS011;13410;52.114;5.718;2023-01-26T02:06:52;57.40;;;22.80;;
25503;SDS011;13410;52.114;5.718;2023-01-26T02:09:31;55.55;;;23.23;;
25503;SDS011;13410;52.114;5.718;2023-01-26T02:12:35;51.72;;;21.65;;
25503;SDS011;13410;52.114;5.718;2023-01-26T02:15:01;55.28;;;21.75;;
25503;SDS011;13410;52.114;5.718;2023-01-26T02:17:27;55.65;;;22.15;;
25503;SDS011;13410;52.114;5.718;2023-01-26T02:22:39;58.50;;;22.75;;
25503;SDS011;13410;52.114;5.718;2023-01-26T02:28:00;52.95;;;21.90;;
25503;SDS011;13410;52.114;5.718;2023-01-26T02:30:26;54.03;;;22.67;;
25503;SDS011;13410;52.114;5.718;2023-01-26T02:32:53;52.95;;;21.00;;
25503;SDS011;13410;52.114;5.718;2023-01-26T02:35:19;49.80;;;21.52;;
25503;SDS011;13410;52.114;5.718;2023-01-26T02:37:45;50.47;;;20.15;;
25503;SDS011;13410;52.114;5.718;2023-01-26T02:42:50;50.30;;;21.30;;
25503;SDS011;13410;52.114;5.718;2023-01-26T02:45:18;50.70;;;20.80;;
25503;SDS011;13410;52.114;5.718;2023-01-26T02:47:45;46.83;;;20.27;;
25503;SDS011;13410;52.114;5.718;2023-01-26T02:50:11;49.60;;;20.70;;
25503;SDS011;13410;52.114;5.718;2023-01-26T02:52:38;45.55;;;19.83;;
25503;SDS011;13410;52.114;5.718;2023-01-26T02:55:04;48.55;;;20.25;;
25503;SDS011;13410;52.114;5.718;2023-01-26T02:57:53;49.85;;;20.20;;
25503;SDS011;13410;52.114;5.718;2023-01-26T03:00:33;50.10;;;20.85;;
25503;SDS011;13410;52.114;5.718;2023-01-26T03:03:01;48.47;;;19.88;;
25503;SDS011;13410;52.114;5.718;2023-01-26T03:05:32;46.72;;;20.00;;
25503;SDS011;13410;52.114;5.718;2023-01-26T03:07:58;48.20;;;20.00;;
25503;SDS011;13410;52.114;5.718;2023-01-26T03:10:23;47.10;;;20.17;;
25503;SDS011;13410;52.114;5.718;2023-01-26T03:12:51;47.17;;;19.80;;
25503;SDS011;13410;52.114;5.718;2023-01-26T03:15:17;55.03;;;20.77;;
25503;SDS011;13410;52.114;5.718;2023-01-26T03:18:06;47.50;;;19.60;;
25503;SDS011;13410;52.114;5.718;2023-01-26T03:21:01;48.38;;;19.70;;
25503;SDS011;13410;52.114;5.718;2023-01-26T03:23:49;46.53;;;19.80;;
25503;SDS011;13410;52.114;5.718;2023-01-26T03:26:34;47.33;;;19.33;;
25503;SDS011;13410;52.114;5.718;2023-01-26T03:29:18;46.22;;;18.60;;
25503;SDS011;13410;52.114;5.718;2023-01-26T03:31:44;45.88;;;18.60;;
25503;SDS011;13410;52.114;5.718;2023-01-26T03:34:11;43.40;;;17.85;;
25503;SDS011;13410;52.114;5.718;2023-01-26T03:36:36;40.28;;;17.67;;
25503;SDS011;13410;52.114;5.718;2023-01-26T03:39:03;39.65;;;17.23;;
25503;SDS011;13410;52.114;5.718;2023-01-26T03:41:29;40.50;;;17.58;;
25503;SDS011;13410;52.114;5.718;2023-01-26T03:44:13;43.58;;;18.40;;
25503;SDS011;13410;52.114;5.718;2023-01-26T03:46:57;42.67;;;18.10;;
25503;SDS011;13410;52.114;5.718;2023-01-26T03:49:41;40.90;;;17.02;;
25503;SDS011;13410;52.114;5.718;2023-01-26T03:52:25;40.83;;;17.60;;
25503;SDS011;13410;52.114;5.718;2023-01-26T03:55:09;37.33;;;16.52;;
25503;SDS011;13410;52.114;5.718;2023-01-26T03:57:53;38.88;;;17.40;;
25503;SDS011;13410;52.114;5.718;2023-01-26T04:00:18;38.42;;;16.70;;
25503;SDS011;13410;52.114;5.718;2023-01-26T04:02:45;35.22;;;16.10;;
25503;SDS011;13410;52.114;5.718;2023-01-26T04:05:30;38.03;;;15.98;;
25503;SDS011;13410;52.114;5.718;2023-01-26T04:08:13;35.38;;;15.55;;
25503;SDS011;13410;52.114;5.718;2023-01-26T04:10:48;35.75;;;15.30;;
25503;SDS011;13410;52.114;5.718;2023-01-26T04:13:16;37.92;;;16.60;;
25503;SDS011;13410;52.114;5.718;2023-01-26T04:16:00;37.63;;;16.67;;
25503;SDS011;13410;52.114;5.718;2023-01-26T04:18:45;34.63;;;15.25;;
25503;SDS011;13410;52.114;5.718;2023-01-26T04:21:29;35.72;;;15.20;;
25503;SDS011;13410;52.114;5.718;2023-01-26T04:23:57;33.00;;;14.63;;
25503;SDS011;13410;52.114;5.718;2023-01-26T04:26:24;32.60;;;14.25;;
25503;SDS011;13410;52.114;5.718;2023-01-26T04:28:51;35.33;;;14.85;;
25503;SDS011;13410;52.114;5.718;2023-01-26T04:31:17;32.60;;;15.05;;
25503;SDS011;13410;52.114;5.718;2023-01-26T04:33:43;34.50;;;15.50;;
25503;SDS011;13410;52.114;5.718;2023-01-26T04:36:09;38.20;;;16.23;;
25503;SDS011;13410;52.114;5.718;2023-01-26T04:38:34;34.08;;;15.02;;
25503;SDS011;13410;52.114;5.718;2023-01-26T04:41:00;33.58;;;15.05;;
25503;SDS011;13410;52.114;5.718;2023-01-26T04:43:26;38.67;;;16.45;;
25503;SDS011;13410;52.114;5.718;2023-01-26T04:45:55;37.17;;;15.20;;
25503;SDS011;13410;52.114;5.718;2023-01-26T04:48:26;35.88;;;16.15;;
25503;SDS011;13410;52.114;5.718;2023-01-26T04:50:57;36.45;;;15.52;;
25503;SDS011;13410;52.114;5.718;2023-01-26T04:53:24;36.58;;;15.80;;
25503;SDS011;13410;52.114;5.718;2023-01-26T04:55:50;33.85;;;15.43;;
25503;SDS011;13410;52.114;5.718;2023-01-26T04:58:16;33.53;;;15.10;;
25503;SDS011;13410;52.114;5.718;2023-01-26T05:00:42;30.05;;;13.50;;
25503;SDS011;13410;52.114;5.718;2023-01-26T05:03:08;34.75;;;14.80;;
25503;SDS011;13410;52.114;5.718;2023-01-26T05:05:34;31.05;;;14.05;;
25503;SDS011;13410;52.114;5.718;2023-01-26T05:08:01;36.85;;;14.68;;
25503;SDS011;13410;52.114;5.718;2023-01-26T05:10:27;32.70;;;14.25;;
25503;SDS011;13410;52.114;5.718;2023-01-26T05:12:52;31.67;;;14.77;;
25503;SDS011;13410;52.114;5.718;2023-01-26T05:15:18;33.00;;;15.93;;
25503;SDS011;13410;52.114;5.718;2023-01-26T05:17:43;32.53;;;15.02;;
25503;SDS011;13410;52.114;5.718;2023-01-26T05:20:09;33.00;;;14.50;;
25503;SDS011;13410;52.114;5.718;2023-01-26T05:22:35;35.17;;;14.75;;
25503;SDS011;13410;52.114;5.718;2023-01-26T05:25:01;34.55;;;15.07;;
25503;SDS011;13410;52.114;5.718;2023-01-26T05:27:26;33.33;;;14.50;;
25503;SDS011;13410;52.114;5.718;2023-01-26T05:29:52;33.08;;;14.23;;
25503;SDS011;13410;52.114;5.718;2023-01-26T05:32:19;33.30;;;14.50;;
25503;SDS011;13410;52.114;5.718;2023-01-26T05:34:46;41.20;;;19.05;;
25503;SDS011;13410;52.114;5.718;2023-01-26T05:37:11;37.97;;;17.85;;
25503;SDS011;13410;52.114;5.718;2023-01-26T05:39:37;33.30;;;15.48;;
25503;SDS011;13410;52.114;5.718;2023-01-26T05:42:02;37.42;;;16.23;;
25503;SDS011;13410;52.114;5.718;2023-01-26T05:44:28;35.35;;;16.52;;
25503;SDS011;13410;52.114;5.718;2023-01-26T05:46:53;36.05;;;16.90;;
25503;SDS011;13410;52.114;5.718;2023-01-26T05:49:19;34.65;;;15.30;;
25503;SDS011;13410;52.114;5.718;2023-01-26T05:51:44;33.97;;;15.25;;
25503;SDS011;13410;52.114;5.718;2023-01-26T05:54:10;34.75;;;15.45;;
25503;SDS011;13410;52.114;5.718;2023-01-26T05:56:36;38.97;;;15.52;;
25503;SDS011;13410;52.114;5.718;2023-01-26T05:59:01;35.72;;;16.35;;
25503;SDS011;13410;52.114;5.718;2023-01-26T06:01:27;36.50;;;16.88;;
25503;SDS011;13410;52.114;5.718;2023-01-26T06:03:53;35.20;;;15.98;;
25503;SDS011;13410;52.114;5.718;2023-01-26T06:06:18;36.05;;;15.23;;
25503;SDS011;13410;52.114;5.718;2023-01-26T06:08:44;33.75;;;15.38;;
25503;SDS011;13410;52.114;5.718;2023-01-26T06:11:09;35.67;;;15.27;;
25503;SDS011;13410;52.114;5.718;2023-01-26T06:13:35;36.15;;;16.55;;
25503;SDS011;13410;52.114;5.718;2023-01-26T06:16:00;39.22;;;17.05;;
25503;SDS011;13410;52.114;5.718;2023-01-26T06:18:26;39.38;;;17.25;;
25503;SDS011;13410;52.114;5.718;2023-01-26T06:20:52;36.70;;;16.02;;
25503;SDS011;13410;52.114;5.718;2023-01-26T06:23:17;34.47;;;15.77;;
25503;SDS011;13410;52.114;5.718;2023-01-26T06:25:43;36.92;;;16.10;;
25503;SDS011;13410;52.114;5.718;2023-01-26T06:28:09;38.35;;;17.20;;
25503;SDS011;13410;52.114;5.718;2023-01-26T06:30:34;40.40;;;16.75;;
25503;SDS011;13410;52.114;5.718;2023-01-26T06:33:00;39.33;;;17.58;;
25503;SDS011;13410;52.114;5.718;2023-01-26T06:35:25;37.13;;;15.55;;
25503;SDS011;13410;52.114;5.718;2023-01-26T06:37:51;39.60;;;16.48;;
25503;SDS011;13410;52.114;5.718;2023-01-26T06:40:17;40.85;;;15.75;;
25503;SDS011;13410;52.114;5.718;2023-01-26T06:42:49;37.88;;;16.73;;
25503;SDS011;13410;52.114;5.718;2023-01-26T06:45:16;37.08;;;16.55;;
25503;SDS011;13410;52.114;5.718;2023-01-26T06:47:47;43.35;;;17.75;;
25503;SDS011;13410;52.114;5.718;2023-01-26T06:50:16;40.00;;;16.60;;
25503;SDS011;13410;52.114;5.718;2023-01-26T06:52:45;43.22;;;17.70;;
25503;SDS011;13410;52.114;5.718;2023-01-26T06:55:28;43.75;;;17.05;;
25503;SDS011;13410;52.114;5.718;2023-01-26T06:58:00;47.55;;;20.77;;
25503;SDS011;13410;52.114;5.718;2023-01-26T07:00:25;45.72;;;19.27;;
25503;SDS011;13410;52.114;5.718;2023-01-26T07:02:51;43.38;;;17.13;;
25503;SDS011;13410;52.114;5.718;2023-01-26T07:05:16;45.08;;;17.83;;
25503;SDS011;13410;52.114;5.718;2023-01-26T07:07:42;42.60;;;17.25;;
25503;SDS011;13410;52.114;5.718;2023-01-26T07:10:08;43.45;;;18.25;;
25503;SDS011;13410;52.114;5.718;2023-01-26T07:12:41;46.13;;;17.52;;
25503;SDS011;13410;52.114;5.718;2023-01-26T07:15:10;47.17;;;18.95;;
25503;SDS011;13410;52.114;5.718;2023-01-26T07:17:37;42.35;;;17.52;;
25503;SDS011;13410;52.114;5.718;2023-01-26T07:20:03;47.50;;;18.05;;
25503;SDS011;13410;52.114;5.718;2023-01-26T07:22:29;43.17;;;18.45;;
25503;SDS011;13410;52.114;5.718;2023-01-26T07:24:55;54.83;;;22.33;;
25503;SDS011;13410;52.114;5.718;2023-01-26T07:27:20;43.25;;;19.17;;
25503;SDS011;13410;52.114;5.718;2023-01-26T07:29:46;49.17;;;20.25;;
25503;SDS011;13410;52.114;5.718;2023-01-26T07:32:11;54.60;;;22.55;;
25503;SDS011;13410;52.114;5.718;2023-01-26T07:34:37;59.58;;;24.23;;
25503;SDS011;13410;52.114;5.718;2023-01-26T07:37:03;51.20;;;21.38;;
25503;SDS011;13410;52.114;5.718;2023-01-26T07:39:29;45.95;;;18.83;;
25503;SDS011;13410;52.114;5.718;2023-01-26T07:41:55;54.08;;;19.80;;
25503;SDS011;13410;52.114;5.718;2023-01-26T07:44:21;51.65;;;20.27;;
25503;SDS011;13410;52.114;5.718;2023-01-26T07:46:47;54.60;;;21.15;;
25503;SDS011;13410;52.114;5.718;2023-01-26T07:49:12;53.90;;;20.83;;
25503;SDS011;13410;52.114;5.718;2023-01-26T07:51:38;67.55;;;23.50;;
25503;SDS011;13410;52.114;5.718;2023-01-26T07:54:04;58.83;;;22.75;;
25503;SDS011;13410;52.114;5.718;2023-01-26T07:56:30;63.67;;;23.20;;
25503;SDS011;13410;52.114;5.718;2023-01-26T07:58:56;60.92;;;22.83;;
25503;SDS011;13410;52.114;5.718;2023-01-26T08:01:22;63.75;;;22.65;;
25503;SDS011;13410;52.114;5.718;2023-01-26T08:03:48;68.72;;;23.75;;
25503;SDS011;13410;52.114;5.718;2023-01-26T08:06:15;60.08;;;24.08;;
25503;SDS011;13410;52.114;5.718;2023-01-26T08:08:42;73.70;;;27.65;;
25503;SDS011;13410;52.114;5.718;2023-01-26T08:11:09;67.07;;;25.30;;
25503;SDS011;13410;52.114;5.718;2023-01-26T08:13:35;66.60;;;23.70;;
25503;SDS011;13410;52.114;5.718;2023-01-26T08:16:02;68.18;;;24.33;;
25503;SDS011;13410;52.114;5.718;2023-01-26T08:18:29;67.15;;;23.00;;
25503;SDS011;13410;52.114;5.718;2023-01-26T08:20:56;67.82;;;23.42;;
25503;SDS011;13410;52.114;5.718;2023-01-26T08:23:22;67.63;;;22.40;;
25503;SDS011;13410;52.114;5.718;2023-01-26T08:25:47;79.03;;;22.77;;
25503;SDS011;13410;52.114;5.718;2023-01-26T08:28:13;76.82;;;24.67;;
25503;SDS011;13410;52.114;5.718;2023-01-26T08:30:39;68.05;;;23.67;;
25503;SDS011;13410;52.114;5.718;2023-01-26T08:33:05;70.53;;;24.67;;
25503;SDS011;13410;52.114;5.718;2023-01-26T08:35:31;76.05;;;24.00;;
25503;SDS011;13410;52.114;5.718;2023-01-26T08:37:57;70.13;;;23.38;;
25503;SDS011;13410;52.114;5.718;2023-01-26T08:40:23;68.40;;;24.73;;
25503;SDS011;13410;52.114;5.718;2023-01-26T08:42:50;87.40;;;31.40;;
25503;SDS011;13410;52.114;5.718;2023-01-26T08:45:16;79.18;;;27.02;;
25503;SDS011;13410;52.114;5.718;2023-01-26T08:47:42;76.03;;;24.50;;
25503;SDS011;13410;52.114;5.718;2023-01-26T08:50:08;75.50;;;28.23;;
25503;SDS011;13410;52.114;5.718;2023-01-26T08:52:33;64.32;;;24.67;;
25503;SDS011;13410;52.114;5.718;2023-01-26T08:54:59;77.80;;;24.23;;
25503;SDS011;13410;52.114;5.718;2023-01-26T08:57:26;78.50;;;26.25;;
25503;SDS011;13410;52.114;5.718;2023-01-26T08:59:51;75.00;;;24.50;;
25503;SDS011;13410;52.114;5.718;2023-01-26T09:02:18;71.35;;;25.27;;
25503;SDS011;13410;52.114;5.718;2023-01-26T09:04:44;82.80;;;24.23;;
25503;SDS011;13410;52.114;5.718;2023-01-26T09:07:09;75.70;;;26.33;;
25503;SDS011;13410;52.114;5.718;2023-01-26T09:09:35;92.65;;;37.17;;
25503;SDS011;13410;52.114;5.718;2023-01-26T09:12:00;87.25;;;31.17;;
25503;SDS011;13410;52.114;5.718;2023-01-26T09:14:26;78.95;;;25.30;;
25503;SDS011;13410;52.114;5.718;2023-01-26T09:16:52;75.40;;;24.13;;
25503;SDS011;13410;52.114;5.718;2023-01-26T09:19:18;70.57;;;24.58;;
25503;SDS011;13410;52.114;5.718;2023-01-26T09:21:43;96.53;;;34.40;;
25503;SDS011;13410;52.114;5.718;2023-01-26T09:24:09;73.93;;;24.98;;
25503;SDS011;13410;52.114;5.718;2023-01-26T09:26:35;76.72;;;26.05;;
25503;SDS011;13410;52.114;5.718;2023-01-26T09:29:00;78.82;;;26.25;;
25503;SDS011;13410;52.114;5.718;2023-01-26T09:31:26;70.13;;;25.15;;
25503;SDS011;13410;52.114;5.718;2023-01-26T09:33:51;78.53;;;27.85;;
25503;SDS011;13410;52.114;5.718;2023-01-26T09:36:17;66.70;;;26.23;;
25503;SDS011;13410;52.114;5.718;2023-01-26T09:38:43;71.07;;;27.25;;
25503;SDS011;13410;52.114;5.718;2023-01-26T09:51:43;67.32;;;24.52;;
25503;SDS011;13410;52.114;5.718;2023-01-26T09:54:34;70.50;;;24.48;;
25503;SDS011;13410;52.114;5.718;2023-01-26T09:57:14;70.35;;;24.05;;
25503;SDS011;13410;52.114;5.718;2023-01-26T10:02:32;72.60;;;23.42;;
25503;SDS011;13410;52.114;5.718;2023-01-26T10:07:52;64.80;;;23.10;;
25503;SDS011;13410;52.114;5.718;2023-01-26T10:10:26;60.25;;;21.75;;
25503;SDS011;13410;52.114;5.718;2023-01-26T10:13:02;63.90;;;23.17;;
25503;SDS011;13410;52.114;5.718;2023-01-26T10:15:38;58.15;;;21.15;;
25503;SDS011;13410;52.114;5.718;2023-01-26T10:18:08;61.95;;;22.33;;
25503;SDS011;13410;52.114;5.718;2023-01-26T10:20:45;57.53;;;19.83;;
25503;SDS011;13410;52.114;5.718;2023-01-26T10:23:21;59.83;;;20.75;;
25503;SDS011;13410;52.114;5.718;2023-01-26T10:26:01;56.10;;;20.48;;
25503;SDS011;13410;52.114;5.718;2023-01-26T10:28:37;56.75;;;20.52;;
25503;SDS011;13410;52.114;5.718;2023-01-26T10:31:07;59.83;;;20.77;;
25503;SDS011;13410;52.114;5.718;2023-01-26T10:33:39;53.70;;;18.42;;
25503;SDS011;13410;52.114;5.718;2023-01-26T10:36:18;56.67;;;19.42;;
25503;SDS011;13410;52.114;5.718;2023-01-26T10:38:43;50.95;;;19.50;;
25503;SDS011;13410;52.114;5.718;2023-01-26T10:43:42;54.28;;;18.70;;
25503;SDS011;13410;52.114;5.718;2023-01-26T10:46:29;55.03;;;18.10;;
25503;SDS011;13410;52.114;5.718;2023-01-26T10:48:57;53.55;;;18.52;;
25503;SDS011;13410;52.114;5.718;2023-01-26T10:51:25;56.30;;;18.55;;
25503;SDS011;13410;52.114;5.718;2023-01-26T10:56:42;51.22;;;17.48;;
25503;SDS011;13410;52.114;5.718;2023-01-26T10:59:09;48.67;;;17.15;;
25503;SDS011;13410;52.114;5.718;2023-01-26T11:01:52;54.50;;;15.93;;
25503;SDS011;13410;52.114;5.718;2023-01-26T11:04:19;42.72;;;13.98;;
25503;SDS011;13410;52.114;5.718;2023-01-26T11:06:45;49.67;;;14.18;;
25503;SDS011;13410;52.114;5.718;2023-01-26T11:11:39;45.72;;;12.80;;
25503;SDS011;13410;52.114;5.718;2023-01-26T11:14:24;42.13;;;13.48;;
25503;SDS011;13410;52.114;5.718;2023-01-26T11:16:56;38.42;;;11.77;;
25503;SDS011;13410;52.114;5.718;2023-01-26T11:22:49;35.95;;;8.85;;
25503;SDS011;13410;52.114;5.718;2023-01-26T11:31:01;24.73;;;6.05;;
25503;SDS011;13410;52.114;5.718;2023-01-26T11:33:40;32.50;;;5.18;;
25503;SDS011;13410;52.114;5.718;2023-01-26T11:41:50;25.88;;;5.80;;
25503;SDS011;13410;52.114;5.718;2023-01-26T12:01:14;18.85;;;3.22;;
25503;SDS011;13410;52.114;5.718;2023-01-26T12:03:52;25.20;;;2.78;;
25503;SDS011;13410;52.114;5.718;2023-01-26T12:06:19;20.15;;;3.47;;
25503;SDS011;13410;52.114;5.718;2023-01-26T12:09:00;22.48;;;4.25;;
25503;SDS011;13410;52.114;5.718;2023-01-26T12:11:41;20.83;;;3.10;;
25503;SDS011;13410;52.114;5.718;2023-01-26T12:17:23;16.80;;;3.03;;
25503;SDS011;13410;52.114;5.718;2023-01-26T12:20:01;20.52;;;2.55;;
25503;SDS011;13410;52.114;5.718;2023-01-26T12:22:48;19.08;;;2.35;;
25503;SDS011;13410;52.114;5.718;2023-01-26T12:25:27;26.10;;;3.00;;
25503;SDS011;13410;52.114;5.718;2023-01-26T12:27:56;24.92;;;3.05;;
25503;SDS011;13410;52.114;5.718;2023-01-26T12:30:47;18.52;;;3.47;;
25503;SDS011;13410;52.114;5.718;2023-01-26T12:52:55;14.98;;;2.63;;
25503;SDS011;13410;52.114;5.718;2023-01-26T12:58:26;18.10;;;2.67;;
25503;SDS011;13410;52.114;5.718;2023-01-26T13:01:04;16.38;;;2.45;;
25503;SDS011;13410;52.114;5.718;2023-01-26T13:03:55;21.15;;;2.55;;
25503;SDS011;13410;52.114;5.718;2023-01-26T13:06:22;14.40;;;2.92;;
25503;SDS011;13410;52.114;5.718;2023-01-26T13:16:56;10.20;;;1.75;;
25503;SDS011;13410;52.114;5.718;2023-01-26T13:24:46;11.00;;;2.08;;
25503;SDS011;13410;52.114;5.718;2023-01-26T13:35:47;10.35;;;1.90;;
25503;SDS011;13410;52.114;5.718;2023-01-26T13:40:52;7.20;;;1.30;;
25503;SDS011;13410;52.114;5.718;2023-01-26T13:43:23;10.20;;;1.65;;
25503;SDS011;13410;52.114;5.718;2023-01-26T13:46:14;9.18;;;1.63;;
25503;SDS011;13410;52.114;5.718;2023-01-26T13:48:55;8.77;;;1.70;;
25503;SDS011;13410;52.114;5.718;2023-01-26T13:51:22;11.52;;;3.40;;
25503;SDS011;13410;52.114;5.718;2023-01-26T13:53:53;10.02;;;2.20;;
25503;SDS011;13410;52.114;5.718;2023-01-26T13:56:32;12.10;;;1.60;;
25503;SDS011;13410;52.114;5.718;2023-01-26T13:59:04;13.18;;;2.70;;
25503;SDS011;13410;52.114;5.718;2023-01-26T14:01:33;14.70;;;2.10;;
25503;SDS011;13410;52.114;5.718;2023-01-26T14:04:05;9.40;;;1.60;;
25503;SDS011;13410;52.114;5.718;2023-01-26T14:06:32;10.57;;;1.42;;
25503;SDS011;13410;52.114;5.718;2023-01-26T14:09:00;10.98;;;1.60;;
25503;SDS011;13410;52.114;5.718;2023-01-26T14:11:27;9.02;;;1.50;;
25503;SDS011;13410;52.114;5.718;2023-01-26T14:13:56;12.93;;;1.52;;
25503;SDS011;13410;52.114;5.718;2023-01-26T14:16:27;16.65;;;2.97;;
25503;SDS011;13410;52.114;5.718;2023-01-26T14:21:53;14.52;;;2.00;;
25503;SDS011;13410;52.114;5.718;2023-01-26T14:26:59;12.27;;;1.80;;
25503;SDS011;13410;52.114;5.718;2023-01-26T14:29:27;12.77;;;1.60;;
25503;SDS011;13410;52.114;5.718;2023-01-26T14:31:54;15.20;;;2.08;;
25503;SDS011;13410;52.114;5.718;2023-01-26T14:34:23;14.20;;;1.77;;
25503;SDS011;13410;52.114;5.718;2023-01-26T14:37:07;12.25;;;1.95;;
25503;SDS011;13410;52.114;5.718;2023-01-26T14:39:40;13.85;;;1.98;;
25503;SDS011;13410;52.114;5.718;2023-01-26T14:42:10;15.52;;;2.15;;
25503;SDS011;13410;52.114;5.718;2023-01-26T14:44:42;14.88;;;1.98;;
25503;SDS011;13410;52.114;5.718;2023-01-26T14:47:12;15.55;;;1.92;;
25503;SDS011;13410;52.114;5.718;2023-01-26T14:52:20;19.98;;;3.03;;
25503;SDS011;13410;52.114;5.718;2023-01-26T14:54:48;14.45;;;2.17;;
25503;SDS011;13410;52.114;5.718;2023-01-26T14:57:18;17.02;;;2.25;;
25503;SDS011;13410;52.114;5.718;2023-01-26T14:59:47;11.00;;;1.80;;
25503;SDS011;13410;52.114;5.718;2023-01-26T15:02:16;13.40;;;1.77;;
25503;SDS011;13410;52.114;5.718;2023-01-26T15:04:43;14.52;;;2.03;;
25503;SDS011;13410;52.114;5.718;2023-01-26T15:07:21;16.75;;;2.30;;
25503;SDS011;13410;52.114;5.718;2023-01-26T15:09:56;11.20;;;1.70;;
25503;SDS011;13410;52.114;5.718;2023-01-26T15:12:21;13.27;;;1.80;;
25503;SDS011;13410;52.114;5.718;2023-01-26T15:14:48;11.43;;;1.73;;
25503;SDS011;13410;52.114;5.718;2023-01-26T15:17:37;10.65;;;1.73;;
25503;SDS011;13410;52.114;5.718;2023-01-26T15:22:40;9.75;;;1.73;;
25503;SDS011;13410;52.114;5.718;2023-01-26T15:25:16;15.75;;;1.70;;
25503;SDS011;13410;52.114;5.718;2023-01-26T15:27:59;14.18;;;1.55;;
25503;SDS011;13410;52.114;5.718;2023-01-26T15:30:29;12.55;;;1.70;;
25503;SDS011;13410;52.114;5.718;2023-01-26T15:32:57;12.10;;;1.98;;
25503;SDS011;13410;52.114;5.718;2023-01-26T15:35:24;13.52;;;1.80;;
25503;SDS011;13410;52.114;5.718;2023-01-26T15:38:09;11.57;;;2.28;;
25503;SDS011;13410;52.114;5.718;2023-01-26T15:40:36;19.55;;;7.20;;
25503;SDS011;13410;52.114;5.718;2023-01-26T15:43:03;15.90;;;2.97;;
25503;SDS011;13410;52.114;5.718;2023-01-26T15:45:34;8.18;;;1.90;;
25503;SDS011;13410;52.114;5.718;2023-01-26T15:48:00;17.35;;;3.17;;
25503;SDS011;13410;52.114;5.718;2023-01-26T15:50:26;13.65;;;3.97;;
25503;SDS011;13410;52.114;5.718;2023-01-26T15:52:51;15.65;;;2.80;;
25503;SDS011;13410;52.114;5.718;2023-01-26T15:55:18;12.85;;;1.70;;
25503;SDS011;13410;52.114;5.718;2023-01-26T15:57:48;14.10;;;2.55;;
25503;SDS011;13410;52.114;5.718;2023-01-26T16:00:14;11.60;;;2.88;;
25503;SDS011;13410;52.114;5.718;2023-01-26T16:02:40;16.60;;;4.13;;
25503;SDS011;13410;52.114;5.718;2023-01-26T16:05:08;15.82;;;2.78;;
25503;SDS011;13410;52.114;5.718;2023-01-26T16:07:37;13.20;;;3.63;;
25503;SDS011;13410;52.114;5.718;2023-01-26T16:10:03;13.23;;;4.32;;
25503;SDS011;13410;52.114;5.718;2023-01-26T16:12:29;10.50;;;1.92;;
25503;SDS011;13410;52.114;5.718;2023-01-26T16:14:54;13.50;;;3.13;;
25503;SDS011;13410;52.114;5.718;2023-01-26T16:17:20;8.85;;;2.33;;
25503;SDS011;13410;52.114;5.718;2023-01-26T16:19:45;11.77;;;3.13;;
25503;SDS011;13410;52.114;5.718;2023-01-26T16:22:11;12.15;;;3.70;;
25503;SDS011;13410;52.114;5.718;2023-01-26T16:24:37;10.35;;;1.92;;
25503;SDS011;13410;52.114;5.718;2023-01-26T16:27:04;21.95;;;6.93;;
25503;SDS011;13410;52.114;5.718;2023-01-26T16:29:31;13.07;;;3.40;;
25503;SDS011;13410;52.114;5.718;2023-01-26T16:31:57;11.43;;;2.83;;
25503;SDS011;13410;52.114;5.718;2023-01-26T16:34:24;14.98;;;3.13;;
25503;SDS011;13410;52.114;5.718;2023-01-26T16:36:50;12.40;;;3.25;;
25503;SDS011;13410;52.114;5.718;2023-01-26T16:39:16;10.48;;;2.38;;
25503;SDS011;13410;52.114;5.718;2023-01-26T16:41:41;15.32;;;4.97;;
25503;SDS011;13410;52.114;5.718;2023-01-26T16:44:11;15.40;;;3.88;;
25503;SDS011;13410;52.114;5.718;2023-01-26T16:46:39;11.45;;;2.35;;